PWSweather.com
Personal Weather Stations
Station Observations

ChardChardGB

Lat: 50.877408, Lon: -2.94964741

Elevation: 341

Station Type: WS3083

http://www.merriott-astro.co.uk/weather/index.htm

High Low Average
Temperature 65.3°F18.5°C 52.2°F11.2°C 59.5°F15.3°C
Dew Point 62.1°F16.7°C 49.1°F9.5°C 55.9°F13.3°C
Winds 16.8 mph 27.0 kmh 0.2 mph 0.3 kmh 8.0 mph SW12.9 kmh SW
Wind Gusts 25.9 mph41.7 kmh 0.7 mph1.1 kmh 12.0 mph19.3 kmh
Humidity 100% 67% 88%
Pressure 29.96 in1014.6 mb 29.48 in998.3 mb -
Precipitation 0.32 in8.1 mm - -
Hour Temp Dew Point Humidity Winds Wind Gusts Pressure Precip Precip Rate Daily Precip Total
12:00 AM 59.4°F15.2°C 59.1°F15.1°C 99% 15.4 mph SSW24.8 kmh SSW 25.1 mph40.4 kmh 29.66 in1004.4 mb 0.09 in2.3 mm 0.00 in0.0 mm 0.09 in2.3 mm
12:10 AM 59.4°F15.2°C 59.1°F15.1°C 99% 16.3 mph S26.2 kmh S 22.1 mph35.6 kmh 29.65 in1004.1 mb 0.08 in2.0 mm 0.00 in0.0 mm 0.09 in2.3 mm
12:20 AM 59.4°F15.2°C 59.1°F15.1°C 99% 16.0 mph SSW25.7 kmh SSW 19.7 mph31.7 kmh 29.65 in1004.1 mb 0.08 in2.0 mm 0.00 in0.0 mm 0.01 in0.3 mm
12:30 AM 59.4°F15.2°C 59.1°F15.1°C 99% 15.2 mph SSW24.5 kmh SSW 21.3 mph34.3 kmh 29.63 in1003.4 mb 0.07 in1.8 mm 0.00 in0.0 mm 0.02 in0.5 mm
12:40 AM 59.4°F15.2°C 59.1°F15.1°C 99% 15.3 mph SSW24.6 kmh SSW 19.7 mph31.7 kmh 29.63 in1003.4 mb 0.05 in1.3 mm 0.00 in0.0 mm 0.02 in0.5 mm
12:50 AM 59.4°F15.2°C 59.1°F15.1°C 99% 16.1 mph S25.9 kmh S 25.9 mph41.7 kmh 29.63 in1003.4 mb 0.05 in1.3 mm 0.00 in0.0 mm 0.04 in1.0 mm
01:00 AM 59.4°F15.2°C 59.1°F15.1°C 99% 15.0 mph S24.1 kmh S 19.0 mph30.6 kmh 29.63 in1003.4 mb 0.05 in1.3 mm 0.00 in0.0 mm 0.05 in1.3 mm
01:10 AM 59.4°F15.2°C 59.1°F15.1°C 99% 12.9 mph SSW20.8 kmh SSW 18.3 mph29.5 kmh 29.61 in1002.7 mb 0.07 in1.8 mm 0.12 in3.0 mm 0.07 in1.8 mm
01:20 AM 59.4°F15.2°C 59.1°F15.1°C 99% 12.0 mph SSW19.3 kmh SSW 20.6 mph33.2 kmh 29.60 in1002.4 mb 0.07 in1.8 mm 0.00 in0.0 mm 0.08 in2.0 mm
01:30 AM 59.5°F15.3°C 59.3°F15.2°C 99% 14.4 mph SSW23.2 kmh SSW 18.3 mph29.5 kmh 29.60 in1002.4 mb 0.08 in2.0 mm 0.06 in1.5 mm 0.11 in2.8 mm
01:40 AM 59.7°F15.4°C 59.5°F15.3°C 99% 15.0 mph SSW24.1 kmh SSW 22.1 mph35.6 kmh 29.58 in1001.7 mb 0.08 in2.0 mm 0.00 in0.0 mm 0.12 in3.0 mm
01:50 AM 60.1°F15.6°C 59.8°F15.4°C 99% 16.8 mph SW27.0 kmh SW 22.1 mph35.6 kmh 29.57 in1001.4 mb 0.08 in2.0 mm 0.00 in0.0 mm 0.12 in3.0 mm
02:00 AM 60.1°F15.6°C 59.8°F15.4°C 99% 13.1 mph SSW21.1 kmh SSW 17.4 mph28.0 kmh 29.57 in1001.4 mb 0.07 in1.8 mm 0.00 in0.0 mm 0.12 in3.0 mm
02:10 AM 60.3°F15.7°C 60.0°F15.6°C 99% 13.9 mph SSW22.4 kmh SSW 21.3 mph34.3 kmh 29.57 in1001.4 mb 0.04 in1.0 mm 0.00 in0.0 mm 0.12 in3.0 mm
02:20 AM 60.3°F15.7°C 60.0°F15.6°C 99% 11.8 mph S19.0 kmh S 14.5 mph23.3 kmh 29.57 in1001.4 mb 0.04 in1.0 mm 0.00 in0.0 mm 0.12 in3.0 mm
02:30 AM 60.3°F15.7°C 60.0°F15.6°C 99% 12.5 mph SW20.1 kmh SW 22.8 mph36.7 kmh 29.56 in1001.0 mb 0.02 in0.5 mm 0.00 in0.0 mm 0.13 in3.3 mm
02:40 AM 60.3°F15.7°C 60.0°F15.6°C 99% 10.9 mph SW17.5 kmh SW 21.3 mph34.3 kmh 29.55 in1000.7 mb 0.01 in0.3 mm 0.00 in0.0 mm 0.13 in3.3 mm
02:50 AM 60.4°F15.8°C 60.2°F15.7°C 99% 8.2 mph WSW13.2 kmh WSW 13.6 mph21.9 kmh 29.54 in1000.3 mb 0.01 in0.3 mm 0.00 in0.0 mm 0.13 in3.3 mm
03:00 AM 60.6°F15.9°C 60.4°F15.8°C 99% 9.6 mph SW15.4 kmh SW 11.4 mph18.3 kmh 29.54 in1000.3 mb 0.01 in0.3 mm 0.00 in0.0 mm 0.13 in3.3 mm
03:10 AM 60.6°F15.9°C 60.4°F15.8°C 99% 8.2 mph S13.2 kmh S 11.4 mph18.3 kmh 29.54 in1000.3 mb 0.02 in0.5 mm 0.06 in1.5 mm 0.14 in3.6 mm
03:20 AM 60.8°F16.0°C 60.5°F15.8°C 99% 8.2 mph SSW13.2 kmh SSW 13.6 mph21.9 kmh 29.53 in1000.0 mb 0.02 in0.5 mm 0.00 in0.0 mm 0.14 in3.6 mm
03:30 AM 60.8°F16.0°C 60.5°F15.8°C 99% 9.5 mph SW15.3 kmh SW 15.2 mph24.5 kmh 29.52 in999.7 mb 0.02 in0.5 mm 0.00 in0.0 mm 0.15 in3.8 mm
03:40 AM 60.8°F16.0°C 60.5°F15.8°C 99% 6.3 mph SSW10.1 kmh SSW 8.3 mph13.4 kmh 29.52 in999.7 mb 0.02 in0.5 mm 0.00 in0.0 mm 0.15 in3.8 mm
03:50 AM 60.8°F16.0°C 60.5°F15.8°C 99% 9.1 mph SW14.6 kmh SW 14.5 mph23.3 kmh 29.51 in999.3 mb 0.02 in0.5 mm 0.00 in0.0 mm 0.15 in3.8 mm
04:00 AM 60.6°F15.9°C 60.6°F15.9°C 100% 9.7 mph S15.6 kmh S 14.5 mph23.3 kmh 29.51 in999.3 mb 0.02 in0.5 mm 0.00 in0.0 mm 0.15 in3.8 mm
04:10 AM 60.8°F16.0°C 60.8°F16.0°C 100% 10.5 mph S16.9 kmh S 15.9 mph25.6 kmh 29.50 in999.0 mb 0.01 in0.3 mm 0.00 in0.0 mm 0.15 in3.8 mm
04:20 AM 60.6°F15.9°C 60.6°F15.9°C 100% 7.2 mph SW11.6 kmh SW 9.8 mph15.8 kmh 29.50 in999.0 mb 0.01 in0.3 mm 0.00 in0.0 mm 0.15 in3.8 mm
04:30 AM 60.6°F15.9°C 60.4°F15.8°C 99% 9.8 mph SSW15.8 kmh SSW 17.4 mph28.0 kmh 29.50 in999.0 mb 0.00 in0.0 mm 0.00 in0.0 mm 0.15 in3.8 mm
04:40 AM 60.6°F15.9°C 60.4°F15.8°C 99% 7.4 mph S11.9 kmh S 11.4 mph18.3 kmh 29.50 in999.0 mb 0.00 in0.0 mm 0.00 in0.0 mm 0.15 in3.8 mm
04:50 AM 60.6°F15.9°C 60.4°F15.8°C 99% 8.9 mph SSW14.3 kmh SSW 13.0 mph20.9 kmh 29.50 in999.0 mb 0.00 in0.0 mm 0.00 in0.0 mm 0.15 in3.8 mm
05:00 AM 60.8°F16.0°C 60.5°F15.8°C 99% 8.3 mph S13.4 kmh S 15.9 mph25.6 kmh 29.50 in999.0 mb 0.00 in0.0 mm 0.00 in0.0 mm 0.15 in3.8 mm
05:10 AM 60.8°F16.0°C 60.5°F15.8°C 99% 10.5 mph W16.9 kmh W 16.8 mph27.0 kmh 29.50 in999.0 mb 0.01 in0.3 mm 0.06 in1.5 mm 0.17 in4.3 mm
05:20 AM 60.6°F15.9°C 60.4°F15.8°C 99% 6.8 mph SSE10.9 kmh SSE 9.8 mph15.8 kmh 29.50 in999.0 mb 0.01 in0.3 mm 0.00 in0.0 mm 0.17 in4.3 mm
05:30 AM 60.6°F15.9°C 60.4°F15.8°C 99% 6.9 mph SW11.1 kmh SW 9.8 mph15.8 kmh 29.49 in998.6 mb 0.02 in0.5 mm 0.06 in1.5 mm 0.18 in4.6 mm
05:40 AM 60.6°F15.9°C 60.4°F15.8°C 99% 6.0 mph SSW9.7 kmh SSW 10.7 mph17.2 kmh 29.50 in999.0 mb 0.02 in0.5 mm 0.00 in0.0 mm 0.18 in4.6 mm
05:50 AM 60.6°F15.9°C 60.4°F15.8°C 99% 8.5 mph SW13.7 kmh SW 10.7 mph17.2 kmh 29.49 in998.6 mb 0.04 in1.0 mm 0.12 in3.0 mm 0.19 in4.8 mm
06:00 AM 60.8°F16.0°C 60.5°F15.8°C 99% 7.5 mph SW12.1 kmh SW 10.7 mph17.2 kmh 29.48 in998.3 mb 0.04 in1.0 mm 0.00 in0.0 mm 0.19 in4.8 mm
06:10 AM 60.8°F16.0°C 60.5°F15.8°C 99% 8.0 mph S12.9 kmh S 13.6 mph21.9 kmh 29.48 in998.3 mb 0.02 in0.5 mm 0.00 in0.0 mm 0.19 in4.8 mm
06:20 AM 60.8°F16.0°C 60.5°F15.8°C 99% 6.0 mph SW9.7 kmh SW 7.6 mph12.2 kmh 29.49 in998.6 mb 0.02 in0.5 mm 0.00 in0.0 mm 0.19 in4.8 mm
06:30 AM 61.0°F16.1°C 60.7°F15.9°C 99% 8.6 mph S13.8 kmh S 11.4 mph18.3 kmh 29.49 in998.6 mb 0.01 in0.3 mm 0.00 in0.0 mm 0.19 in4.8 mm
06:40 AM 61.2°F16.2°C 60.0°F15.6°C 96% 8.9 mph SW14.3 kmh SW 13.0 mph20.9 kmh 29.48 in998.3 mb 0.00 in0.0 mm 0.00 in0.0 mm 0.19 in4.8 mm
06:50 AM 61.2°F16.2°C 59.7°F15.4°C 95% 6.4 mph WSW10.3 kmh WSW 8.3 mph13.4 kmh 29.50 in999.0 mb 0.00 in0.0 mm 0.00 in0.0 mm 0.19 in4.8 mm
07:00 AM 61.0°F16.1°C 59.6°F15.3°C 95% 7.2 mph S11.6 kmh S 11.4 mph18.3 kmh 29.50 in999.0 mb 0.00 in0.0 mm 0.00 in0.0 mm 0.19 in4.8 mm
07:10 AM 60.8°F16.0°C 59.7°F15.4°C 96% 5.7 mph SW9.2 kmh SW 9.2 mph14.8 kmh 29.49 in998.6 mb 0.00 in0.0 mm 0.00 in0.0 mm 0.19 in4.8 mm
07:20 AM 60.6°F15.9°C 59.8°F15.4°C 97% 5.5 mph SSW8.9 kmh SSW 8.3 mph13.4 kmh 29.50 in999.0 mb 0.02 in0.5 mm 0.12 in3.0 mm 0.21 in5.3 mm
07:30 AM 60.8°F16.0°C 60.8°F16.0°C 100% 4.1 mph SW6.6 kmh SW 9.2 mph14.8 kmh 29.50 in999.0 mb 0.04 in1.0 mm 0.12 in3.0 mm 0.22 in5.6 mm
07:40 AM 61.0°F16.1°C 61.0°F16.1°C 100% 5.0 mph SW8.0 kmh SW 7.6 mph12.2 kmh 29.50 in999.0 mb 0.04 in1.0 mm 0.00 in0.0 mm 0.22 in5.6 mm
07:50 AM 61.2°F16.2°C 60.0°F15.6°C 96% 5.5 mph SSW8.9 kmh SSW 9.2 mph14.8 kmh 29.50 in999.0 mb 0.04 in1.0 mm 0.00 in0.0 mm 0.22 in5.6 mm
08:00 AM 61.0°F16.1°C 59.8°F15.4°C 96% 5.4 mph SW8.7 kmh SW 8.3 mph13.4 kmh 29.50 in999.0 mb 0.04 in1.0 mm 0.00 in0.0 mm 0.22 in5.6 mm
08:10 AM 61.0°F16.1°C 59.8°F15.4°C 96% 5.0 mph SW8.0 kmh SW 7.6 mph12.2 kmh 29.50 in999.0 mb 0.04 in1.0 mm 0.00 in0.0 mm 0.22 in5.6 mm
08:20 AM 61.0°F16.1°C 59.8°F15.4°C 96% 6.4 mph SW10.3 kmh SW 10.7 mph17.2 kmh 29.50 in999.0 mb 0.01 in0.3 mm 0.00 in0.0 mm 0.22 in5.6 mm
08:30 AM 61.0°F16.1°C 59.8°F15.4°C 96% 5.9 mph SW9.5 kmh SW 9.8 mph15.8 kmh 29.50 in999.0 mb 0.00 in0.0 mm 0.00 in0.0 mm 0.22 in5.6 mm
08:40 AM 61.3°F16.3°C 60.2°F15.7°C 96% 6.6 mph SSW10.6 kmh SSW 8.3 mph13.4 kmh 29.50 in999.0 mb 0.00 in0.0 mm 0.00 in0.0 mm 0.22 in5.6 mm
08:50 AM 61.7°F16.5°C 60.0°F15.6°C 94% 6.8 mph SSW10.9 kmh SSW 9.2 mph14.8 kmh 29.50 in999.0 mb 0.00 in0.0 mm 0.00 in0.0 mm 0.22 in5.6 mm
09:00 AM 62.1°F16.7°C 59.7°F15.4°C 92% 6.7 mph S10.8 kmh S 11.4 mph18.3 kmh 29.50 in999.0 mb 0.00 in0.0 mm 0.00 in0.0 mm 0.22 in5.6 mm
09:10 AM 63.0°F17.2°C 60.3°F15.7°C 91% 6.2 mph WSW10.0 kmh WSW 12.1 mph19.5 kmh 29.50 in999.0 mb 0.00 in0.0 mm 0.00 in0.0 mm 0.22 in5.6 mm
09:20 AM 62.4°F16.9°C 59.8°F15.4°C 91% 6.9 mph S11.1 kmh S 9.2 mph14.8 kmh 29.50 in999.0 mb 0.01 in0.3 mm 0.06 in1.5 mm 0.24 in6.1 mm
09:30 AM 61.5°F16.4°C 59.5°F15.3°C 93% 8.1 mph SW13.0 kmh SW 10.7 mph17.2 kmh 29.50 in999.0 mb 0.06 in1.5 mm 0.30 in7.6 mm 0.28 in7.1 mm
09:40 AM 61.3°F16.3°C 59.9°F15.5°C 95% 4.8 mph SSW7.7 kmh SSW 9.2 mph14.8 kmh 29.49 in998.6 mb 0.07 in1.8 mm 0.06 in1.5 mm 0.30 in7.6 mm
09:50 AM 61.7°F16.5°C 60.9°F16.1°C 97% 6.5 mph S10.5 kmh S 10.7 mph17.2 kmh 29.49 in998.6 mb 0.07 in1.8 mm 0.00 in0.0 mm 0.30 in7.6 mm
10:00 AM 63.0°F17.2°C 62.1°F16.7°C 97% 5.6 mph SW9.0 kmh SW 9.2 mph14.8 kmh 29.48 in998.3 mb 0.07 in1.8 mm 0.00 in0.0 mm 0.30 in7.6 mm
10:10 AM 63.9°F17.7°C 60.9°F16.1°C 90% 6.9 mph SSW11.1 kmh SSW 10.7 mph17.2 kmh 29.48 in998.3 mb 0.07 in1.8 mm 0.00 in0.0 mm 0.30 in7.6 mm
10:20 AM 63.9°F17.7°C 59.9°F15.5°C 87% 6.6 mph SSW10.6 kmh SSW 9.8 mph15.8 kmh 29.48 in998.3 mb 0.06 in1.5 mm 0.00 in0.0 mm 0.30 in7.6 mm
10:30 AM 63.9°F17.7°C 59.9°F15.5°C 87% 7.4 mph S11.9 kmh S 10.7 mph17.2 kmh 29.48 in998.3 mb 0.01 in0.3 mm 0.00 in0.0 mm 0.30 in7.6 mm
10:40 AM 65.1°F18.4°C 61.2°F16.2°C 87% 6.8 mph S10.9 kmh S 10.7 mph17.2 kmh 29.48 in998.3 mb 0.00 in0.0 mm 0.00 in0.0 mm 0.30 in7.6 mm
10:50 AM 65.3°F18.5°C 59.3°F15.2°C 81% 7.4 mph SW11.9 kmh SW 10.7 mph17.2 kmh 29.48 in998.3 mb 0.00 in0.0 mm 0.00 in0.0 mm 0.30 in7.6 mm
11:00 AM 63.5°F17.5°C 58.6°F14.8°C 84% 8.0 mph S12.9 kmh S 11.4 mph18.3 kmh 29.49 in998.6 mb 0.00 in0.0 mm 0.00 in0.0 mm 0.30 in7.6 mm
11:10 AM 63.5°F17.5°C 57.9°F14.4°C 82% 9.1 mph S14.6 kmh S 13.6 mph21.9 kmh 29.50 in999.0 mb 0.00 in0.0 mm 0.00 in0.0 mm 0.30 in7.6 mm
11:20 AM 63.3°F17.4°C 58.4°F14.7°C 84% 9.3 mph WSW15.0 kmh WSW 15.2 mph24.5 kmh 29.50 in999.0 mb 0.00 in0.0 mm 0.00 in0.0 mm 0.30 in7.6 mm
11:30 AM 63.0°F17.2°C 58.4°F14.7°C 85% 6.5 mph SSE10.5 kmh SSE 9.2 mph14.8 kmh 29.50 in999.0 mb 0.00 in0.0 mm 0.00 in0.0 mm 0.30 in7.6 mm
11:40 AM 62.6°F17.0°C 58.7°F14.8°C 87% 7.5 mph WSW12.1 kmh WSW 10.7 mph17.2 kmh 29.51 in999.3 mb 0.00 in0.0 mm 0.00 in0.0 mm 0.30 in7.6 mm
11:50 AM 61.7°F16.5°C 57.2°F14.0°C 85% 11.9 mph WSW19.2 kmh WSW 19.0 mph30.6 kmh 29.52 in999.7 mb 0.00 in0.0 mm 0.00 in0.0 mm 0.30 in7.6 mm
12:00 PM 62.4°F16.9°C 58.2°F14.6°C 86% 7.8 mph SW12.6 kmh SW 10.7 mph17.2 kmh 29.52 in999.7 mb 0.00 in0.0 mm 0.00 in0.0 mm 0.30 in7.6 mm
12:10 PM 62.4°F16.9°C 57.5°F14.2°C 84% 10.5 mph NW16.9 kmh NW 15.2 mph24.5 kmh 29.53 in1000.0 mb 0.00 in0.0 mm 0.00 in0.0 mm 0.30 in7.6 mm
12:20 PM 62.4°F16.9°C 57.5°F14.2°C 84% 7.2 mph W11.6 kmh W 11.4 mph18.3 kmh 29.53 in1000.0 mb 0.00 in0.0 mm 0.00 in0.0 mm 0.30 in7.6 mm
12:30 PM 61.9°F16.6°C 57.0°F13.9°C 84% 11.5 mph W18.5 kmh W 15.9 mph25.6 kmh 29.54 in1000.3 mb 0.00 in0.0 mm 0.00 in0.0 mm 0.30 in7.6 mm
12:40 PM 61.5°F16.4°C 56.7°F13.7°C 84% 12.2 mph NW19.6 kmh NW 15.2 mph24.5 kmh 29.56 in1001.0 mb 0.00 in0.0 mm 0.00 in0.0 mm 0.30 in7.6 mm
12:50 PM 61.7°F16.5°C 55.5°F13.1°C 80% 10.7 mph WNW17.2 kmh WNW 15.9 mph25.6 kmh 29.57 in1001.4 mb 0.00 in0.0 mm 0.00 in0.0 mm 0.30 in7.6 mm
01:00 PM 60.8°F16.0°C 54.3°F12.4°C 79% 15.9 mph W25.6 kmh W 21.3 mph34.3 kmh 29.57 in1001.4 mb 0.00 in0.0 mm 0.00 in0.0 mm 0.30 in7.6 mm
01:10 PM 60.8°F16.0°C 54.3°F12.4°C 79% 11.8 mph NW19.0 kmh NW 17.4 mph28.0 kmh 29.58 in1001.7 mb 0.00 in0.0 mm 0.00 in0.0 mm 0.30 in7.6 mm
01:20 PM 60.6°F15.9°C 53.4°F11.9°C 77% 14.2 mph WNW22.9 kmh WNW 19.0 mph30.6 kmh 29.59 in1002.0 mb 0.01 in0.3 mm 0.06 in1.5 mm 0.31 in7.9 mm
01:30 PM 60.6°F15.9°C 53.4°F11.9°C 77% 12.6 mph WNW20.3 kmh WNW 17.4 mph28.0 kmh 29.59 in1002.0 mb 0.02 in0.5 mm 0.06 in1.5 mm 0.32 in8.1 mm
01:40 PM 60.1°F15.6°C 52.9°F11.6°C 77% 13.7 mph WNW22.0 kmh WNW 16.8 mph27.0 kmh 29.62 in1003.0 mb 0.02 in0.5 mm 0.00 in0.0 mm 0.32 in8.1 mm
01:50 PM 60.3°F15.7°C 53.0°F11.7°C 77% 14.9 mph NW24.0 kmh NW 20.6 mph33.2 kmh 29.61 in1002.7 mb 0.02 in0.5 mm 0.00 in0.0 mm 0.32 in8.1 mm
02:00 PM 61.2°F16.2°C 53.6°F12.0°C 76% 11.5 mph NW18.5 kmh NW 15.9 mph25.6 kmh 29.62 in1003.0 mb 0.02 in0.5 mm 0.00 in0.0 mm 0.32 in8.1 mm
02:10 PM 61.7°F16.5°C 53.0°F11.7°C 73% 13.7 mph NW22.0 kmh NW 17.4 mph28.0 kmh 29.62 in1003.0 mb 0.02 in0.5 mm 0.00 in0.0 mm 0.32 in8.1 mm
02:20 PM 62.4°F16.9°C 52.9°F11.6°C 71% 13.5 mph NW21.7 kmh NW 19.0 mph30.6 kmh 29.63 in1003.4 mb 0.01 in0.3 mm 0.00 in0.0 mm 0.32 in8.1 mm
02:30 PM 62.1°F16.7°C 52.9°F11.6°C 72% 13.0 mph NW20.9 kmh NW 19.0 mph30.6 kmh 29.63 in1003.4 mb 0.00 in0.0 mm 0.00 in0.0 mm 0.32 in8.1 mm
02:40 PM 62.8°F17.1°C 52.9°F11.6°C 70% 13.7 mph NNW22.0 kmh NNW 20.6 mph33.2 kmh 29.64 in1003.7 mb 0.00 in0.0 mm 0.00 in0.0 mm 0.32 in8.1 mm
02:50 PM 62.6°F17.0°C 52.3°F11.3°C 69% 16.4 mph NW26.4 kmh NW 22.8 mph36.7 kmh 29.65 in1004.1 mb 0.00 in0.0 mm 0.00 in0.0 mm 0.32 in8.1 mm
03:00 PM 62.1°F16.7°C 52.2°F11.2°C 70% 13.0 mph NW20.9 kmh NW 22.8 mph36.7 kmh 29.66 in1004.4 mb 0.00 in0.0 mm 0.00 in0.0 mm 0.32 in8.1 mm
03:10 PM 62.2°F16.8°C 52.0°F11.1°C 69% 13.1 mph W21.1 kmh W 19.0 mph30.6 kmh 29.67 in1004.7 mb 0.00 in0.0 mm 0.00 in0.0 mm 0.32 in8.1 mm
03:20 PM 61.9°F16.6°C 52.0°F11.1°C 70% 11.7 mph NW18.8 kmh NW 19.0 mph30.6 kmh 29.68 in1005.1 mb 0.00 in0.0 mm 0.00 in0.0 mm 0.32 in8.1 mm
03:30 PM 61.9°F16.6°C 51.2°F10.7°C 68% 13.3 mph WNW21.4 kmh WNW 17.4 mph28.0 kmh 29.69 in1005.4 mb 0.00 in0.0 mm 0.00 in0.0 mm 0.32 in8.1 mm
03:40 PM 62.2°F16.8°C 51.2°F10.7°C 67% 12.0 mph NW19.3 kmh NW 17.4 mph28.0 kmh 29.71 in1006.1 mb 0.00 in0.0 mm 0.00 in0.0 mm 0.32 in8.1 mm
03:50 PM 61.0°F16.1°C 50.4°F10.2°C 68% 15.0 mph NW24.1 kmh NW 18.3 mph29.5 kmh 29.72 in1006.4 mb 0.00 in0.0 mm 0.00 in0.0 mm 0.32 in8.1 mm
04:00 PM 60.8°F16.0°C 50.2°F10.1°C 68% 13.0 mph W20.9 kmh W 20.6 mph33.2 kmh 29.73 in1006.8 mb 0.00 in0.0 mm 0.00 in0.0 mm 0.32 in8.1 mm
04:10 PM 61.0°F16.1°C 50.0°F10.0°C 67% 15.4 mph NW24.8 kmh NW 21.3 mph34.3 kmh 29.73 in1006.8 mb 0.00 in0.0 mm 0.00 in0.0 mm 0.32 in8.1 mm
04:20 PM 60.1°F15.6°C 49.1°F9.5°C 67% 12.5 mph NW20.1 kmh NW 15.9 mph25.6 kmh 29.75 in1007.5 mb 0.00 in0.0 mm 0.00 in0.0 mm 0.32 in8.1 mm
04:30 PM 59.9°F15.5°C 50.1°F10.1°C 70% 10.5 mph WNW16.9 kmh WNW 13.6 mph21.9 kmh 29.74 in1007.1 mb 0.00 in0.0 mm 0.00 in0.0 mm 0.32 in8.1 mm
04:40 PM 60.3°F15.7°C 50.5°F10.3°C 70% 9.9 mph WNW15.9 kmh WNW 14.5 mph23.3 kmh 29.76 in1007.8 mb 0.00 in0.0 mm 0.00 in0.0 mm 0.32 in8.1 mm
04:50 PM 59.7°F15.4°C 50.3°F10.2°C 71% 12.1 mph WNW19.5 kmh WNW 16.8 mph27.0 kmh 29.77 in1008.1 mb 0.00 in0.0 mm 0.00 in0.0 mm 0.32 in8.1 mm
05:00 PM 59.4°F15.2°C 50.3°F10.2°C 72% 10.0 mph NW16.1 kmh NW 13.6 mph21.9 kmh 29.77 in1008.1 mb 0.00 in0.0 mm 0.00 in0.0 mm 0.32 in8.1 mm
05:10 PM 59.2°F15.1°C 50.5°F10.3°C 73% 10.2 mph WNW16.4 kmh WNW 13.6 mph21.9 kmh 29.78 in1008.5 mb 0.00 in0.0 mm 0.00 in0.0 mm 0.32 in8.1 mm
05:20 PM 59.4°F15.2°C 50.3°F10.2°C 72% 11.9 mph NW19.2 kmh NW 16.8 mph27.0 kmh 29.78 in1008.5 mb 0.00 in0.0 mm 0.00 in0.0 mm 0.32 in8.1 mm
05:30 PM 59.2°F15.1°C 50.5°F10.3°C 73% 10.1 mph WNW16.3 kmh WNW 16.8 mph27.0 kmh 29.80 in1009.1 mb 0.00 in0.0 mm 0.00 in0.0 mm 0.32 in8.1 mm
05:40 PM 59.2°F15.1°C 50.5°F10.3°C 73% 8.0 mph NW12.9 kmh NW 11.4 mph18.3 kmh 29.79 in1008.8 mb 0.00 in0.0 mm 0.00 in0.0 mm 0.32 in8.1 mm
05:50 PM 59.0°F15.0°C 50.4°F10.2°C 73% 8.0 mph WNW12.9 kmh WNW 11.4 mph18.3 kmh 29.80 in1009.1 mb 0.00 in0.0 mm 0.00 in0.0 mm 0.32 in8.1 mm
06:00 PM 58.6°F14.8°C 50.4°F10.2°C 74% 6.6 mph NW10.6 kmh NW 9.8 mph15.8 kmh 29.80 in1009.1 mb 0.00 in0.0 mm 0.00 in0.0 mm 0.32 in8.1 mm
06:10 PM 58.6°F14.8°C 50.4°F10.2°C 74% 8.3 mph WNW13.4 kmh WNW 10.7 mph17.2 kmh 29.80 in1009.1 mb 0.00 in0.0 mm 0.00 in0.0 mm 0.32 in8.1 mm
06:20 PM 58.5°F14.7°C 50.2°F10.1°C 74% 7.7 mph NW12.4 kmh NW 10.7 mph17.2 kmh 29.82 in1009.8 mb 0.00 in0.0 mm 0.00 in0.0 mm 0.32 in8.1 mm
06:30 PM 58.3°F14.6°C 50.4°F10.2°C 75% 6.1 mph NW9.8 kmh NW 8.3 mph13.4 kmh 29.84 in1010.5 mb 0.00 in0.0 mm 0.00 in0.0 mm 0.32 in8.1 mm
06:40 PM 57.7°F14.3°C 50.2°F10.1°C 76% 3.9 mph NW6.3 kmh NW 5.4 mph8.7 kmh 29.84 in1010.5 mb 0.00 in0.0 mm 0.00 in0.0 mm 0.32 in8.1 mm
06:50 PM 57.6°F14.2°C 50.4°F10.2°C 77% 5.0 mph WNW8.0 kmh WNW 6.9 mph11.1 kmh 29.85 in1010.8 mb 0.00 in0.0 mm 0.00 in0.0 mm 0.32 in8.1 mm
07:00 PM 57.2°F14.0°C 50.4°F10.2°C 78% 3.5 mph WNW5.6 kmh WNW 5.4 mph8.7 kmh 29.85 in1010.8 mb 0.00 in0.0 mm 0.00 in0.0 mm 0.32 in8.1 mm
07:10 PM 56.5°F13.6°C 50.1°F10.1°C 79% 2.0 mph W3.2 kmh W 3.1 mph5.0 kmh 29.86 in1011.2 mb 0.00 in0.0 mm 0.00 in0.0 mm 0.32 in8.1 mm
07:20 PM 56.1°F13.4°C 50.0°F10.0°C 80% 2.2 mph NW3.5 kmh NW 3.8 mph6.1 kmh 29.87 in1011.5 mb 0.00 in0.0 mm 0.00 in0.0 mm 0.32 in8.1 mm
07:30 PM 55.6°F13.1°C 49.5°F9.7°C 80% 1.7 mph WNW2.7 kmh WNW 3.1 mph5.0 kmh 29.87 in1011.5 mb 0.00 in0.0 mm 0.00 in0.0 mm 0.32 in8.1 mm
07:40 PM 55.6°F13.1°C 49.9°F9.9°C 81% 2.4 mph NW3.9 kmh NW 4.5 mph7.2 kmh 29.88 in1011.9 mb 0.00 in0.0 mm 0.00 in0.0 mm 0.32 in8.1 mm
07:50 PM 55.0°F12.8°C 49.3°F9.6°C 81% 0.9 mph W1.4 kmh W 3.1 mph5.0 kmh 29.89 in1012.2 mb 0.00 in0.0 mm 0.00 in0.0 mm 0.32 in8.1 mm
08:00 PM 54.3°F12.4°C 50.2°F10.1°C 86% 0.2 mph SW0.3 kmh SW 0.7 mph1.1 kmh 29.89 in1012.2 mb 0.00 in0.0 mm 0.00 in0.0 mm 0.32 in8.1 mm
08:10 PM 53.8°F12.1°C 50.6°F10.3°C 89% 0.4 mph SW0.6 kmh SW 0.7 mph1.1 kmh 29.90 in1012.5 mb 0.00 in0.0 mm 0.00 in0.0 mm 0.32 in8.1 mm
08:20 PM 54.0°F12.2°C 51.1°F10.6°C 90% 0.4 mph S0.6 kmh S 1.6 mph2.6 kmh 29.91 in1012.9 mb 0.00 in0.0 mm 0.00 in0.0 mm 0.32 in8.1 mm
08:30 PM 54.1°F12.3°C 51.6°F10.9°C 91% 0.5 mph NW0.8 kmh NW 1.6 mph2.6 kmh 29.91 in1012.9 mb 0.00 in0.0 mm 0.00 in0.0 mm 0.32 in8.1 mm
08:40 PM 54.5°F12.5°C 51.3°F10.7°C 89% 1.0 mph W1.6 kmh W 2.2 mph3.5 kmh 29.90 in1012.5 mb 0.00 in0.0 mm 0.00 in0.0 mm 0.32 in8.1 mm
08:50 PM 54.5°F12.5°C 51.3°F10.7°C 89% 2.4 mph W3.9 kmh W 3.1 mph5.0 kmh 29.92 in1013.2 mb 0.00 in0.0 mm 0.00 in0.0 mm 0.32 in8.1 mm
09:00 PM 54.7°F12.6°C 51.5°F10.8°C 89% 2.7 mph SSW4.3 kmh SSW 4.5 mph7.2 kmh 29.92 in1013.2 mb 0.00 in0.0 mm 0.00 in0.0 mm 0.32 in8.1 mm
09:10 PM 54.7°F12.6°C 51.5°F10.8°C 89% 1.3 mph WSW2.1 kmh WSW 3.1 mph5.0 kmh 29.93 in1013.5 mb 0.00 in0.0 mm 0.00 in0.0 mm 0.32 in8.1 mm
09:20 PM 54.3°F12.4°C 52.1°F11.2°C 92% 0.9 mph SE1.4 kmh SE 2.2 mph3.5 kmh 29.92 in1013.2 mb 0.00 in0.0 mm 0.00 in0.0 mm 0.32 in8.1 mm
09:30 PM 54.0°F12.2°C 51.7°F10.9°C 92% 1.3 mph WSW2.1 kmh WSW 3.8 mph6.1 kmh 29.93 in1013.5 mb 0.00 in0.0 mm 0.00 in0.0 mm 0.32 in8.1 mm
09:40 PM 53.8°F12.1°C 51.8°F11.0°C 93% 1.5 mph SW2.4 kmh SW 2.2 mph3.5 kmh 29.92 in1013.2 mb 0.00 in0.0 mm 0.00 in0.0 mm 0.32 in8.1 mm
09:50 PM 53.8°F12.1°C 51.8°F11.0°C 93% 1.4 mph SSW2.3 kmh SSW 2.2 mph3.5 kmh 29.92 in1013.2 mb 0.00 in0.0 mm 0.00 in0.0 mm 0.32 in8.1 mm
10:00 PM 53.6°F12.0°C 51.6°F10.9°C 93% 1.7 mph SE2.7 kmh SE 2.2 mph3.5 kmh 29.94 in1013.9 mb 0.00 in0.0 mm 0.00 in0.0 mm 0.32 in8.1 mm
10:10 PM 53.2°F11.8°C 51.3°F10.7°C 93% 0.8 mph E1.3 kmh E 2.2 mph3.5 kmh 29.94 in1013.9 mb 0.00 in0.0 mm 0.00 in0.0 mm 0.32 in8.1 mm
10:20 PM 53.1°F11.7°C 51.7°F10.9°C 95% 1.4 mph SW2.3 kmh SW 1.6 mph2.6 kmh 29.93 in1013.5 mb 0.00 in0.0 mm 0.00 in0.0 mm 0.32 in8.1 mm
10:30 PM 53.1°F11.7°C 52.0°F11.1°C 96% 1.6 mph SSW2.6 kmh SSW 2.2 mph3.5 kmh 29.94 in1013.9 mb 0.00 in0.0 mm 0.00 in0.0 mm 0.32 in8.1 mm
10:40 PM 52.7°F11.5°C 51.6°F10.9°C 96% 1.3 mph SSE2.1 kmh SSE 2.2 mph3.5 kmh 29.95 in1014.2 mb 0.00 in0.0 mm 0.00 in0.0 mm 0.32 in8.1 mm
10:50 PM 52.5°F11.4°C 51.7°F10.9°C 97% 1.0 mph SE1.6 kmh SE 1.6 mph2.6 kmh 29.94 in1013.9 mb 0.00 in0.0 mm 0.00 in0.0 mm 0.32 in8.1 mm
11:00 PM 52.3°F11.3°C 52.3°F11.3°C 100% 1.2 mph S1.9 kmh S 2.2 mph3.5 kmh 29.95 in1014.2 mb 0.00 in0.0 mm 0.00 in0.0 mm 0.32 in8.1 mm
11:10 PM 52.5°F11.4°C 52.3°F11.3°C 99% 1.6 mph SE2.6 kmh SE 2.2 mph3.5 kmh 29.95 in1014.2 mb 0.00 in0.0 mm 0.00 in0.0 mm 0.32 in8.1 mm
11:20 PM 52.5°F11.4°C 52.3°F11.3°C 99% 1.1 mph SE1.8 kmh SE 2.2 mph3.5 kmh 29.96 in1014.6 mb 0.00 in0.0 mm 0.00 in0.0 mm 0.32 in8.1 mm
11:30 PM 52.5°F11.4°C 52.3°F11.3°C 99% 1.2 mph SSE1.9 kmh SSE 2.2 mph3.5 kmh 29.95 in1014.2 mb 0.00 in0.0 mm 0.00 in0.0 mm 0.32 in8.1 mm
11:40 PM 52.5°F11.4°C 52.3°F11.3°C 99% 0.7 mph W1.1 kmh W 1.6 mph2.6 kmh 29.96 in1014.6 mb 0.00 in0.0 mm 0.00 in0.0 mm 0.32 in8.1 mm
11:50 PM 52.2°F11.2°C 51.9°F11.1°C 99% 0.5 mph W0.8 kmh W 1.6 mph2.6 kmh 29.96 in1014.6 mb 0.00 in0.0 mm 0.00 in0.0 mm 0.32 in8.1 mm